• Join FlightAware (Why Join?)
  • Login
  • US Flag 
06:22PM EDT


 

Airport Tracker/Info


-or-


 

Live Flight TrackerFlight Track Log ✈ SKW4796 ✈ 25-May-2013 ✈ KPHX - KLAX

Flight Track Log - Related Links

Times and Time Zones

All times are in EDT time to prevent confusion due to time zone crossing. See the SKW4796 flight status page for this flight to view local times or setup timezone preferences in your user account.

Time Position Orientation Groundspeed Altitude Reporting Facility
EDT Latitude Longitude Course Direction KTS MPH feet Rate Location/Type
09:52PM 33.4333 -112.0333 273° West 152 175 2,000  Level Phoenix TRACON
09:52PM 33.4333 -112.0333 273° West 156 180 2,200 1,500 Climbing Phoenix TRACON
09:53PM 33.4167 -112.1000 253° West 218 251 3,700 1,620 Climbing Phoenix TRACON
09:54PM 33.3989 -112.1383 241° Southwest 234 269 4,900 2,340 Climbing Albuquerque Center
09:55PM 33.4333 -112.3726 270° West  Level FlightAware Approximate
09:55PM 33.3836 -112.2242 258° West 263 303 7,600  Level Albuquerque Center
09:56PM 33.4380 -112.4967 273° West  Level FlightAware Approximate
09:56PM 33.3939 -112.3194 277° West 287 330 10,200  Level Albuquerque Center
09:57PM 33.4430 -112.6208 273° West  Level FlightAware Approximate
09:57PM 33.4056 -112.4183 278° West 298 343 13,000  Level Albuquerque Center
09:58PM 33.4169 -112.5189 278° West 306 352 15,300 2,220 Climbing Albuquerque Center
09:59PM 33.4297 -112.6239 278° West 317 365 17,600 2,160 Climbing Albuquerque Center
10:00PM 33.4422 -112.7303 278° West 320 368 19,700 2,040 Climbing Albuquerque Center
10:01PM 33.4575 -112.8386 280° West 326 375 21,800 2,280 Climbing Albuquerque Center
10:02PM 33.4958 -112.9422 294° West 349 402 24,400 1,740 Climbing Albuquerque Center
10:03PM 33.5336 -113.0464 294° West 343 395 25,400 1,500 Climbing Albuquerque Center
10:04PM 33.5822 -113.1833 293° West 364 419 27,500 1,740 Climbing Albuquerque Center
10:05PM 33.6231 -113.2964 293° West 369 425 29,000 1,380 Climbing Albuquerque Center
10:06PM 33.6642 -113.4133 293° West 370 426 30,400 1,260 Climbing Albuquerque Center
10:07PM 33.7050 -113.5308 293° West 377 434 31,600 780 Climbing Albuquerque Center
10:08PM 33.7461 -113.6478 293° West 381 438 32,000 180 Climbing Albuquerque Center
10:09PM 33.7881 -113.7675 293° West 386 444 32,000  Level Albuquerque Center
10:10PM 33.8292 -113.8861 293° West 386 444 32,000  Level Albuquerque Center
10:11PM 33.8581 -114.0100 286° West 387 445 32,000  Level Albuquerque Center
10:12PM 33.8747 -114.1372 279° West 387 445 32,000  Level Albuquerque Center
10:13PM 33.8944 -114.2575 281° West 387 445 32,000  Level Albuquerque Center
10:14PM 33.9136 -114.3839 280° West 386 444 32,000  Level Albuquerque Center
10:15PM 33.9322 -114.5100 280° West 384 442 32,000  Level Albuquerque Center
10:17PM 33.9569 -114.6772 280° West 386 444 32,000  Level Los Angeles Center
10:18PM 33.9764 -114.8022 281° West 382 440 32,000  Level Los Angeles Center
10:19PM 33.9942 -114.9272 280° West 381 438 32,000  Level Los Angeles Center
10:20PM 34.0117 -115.0531 280° West 383 441 32,000  Level Los Angeles Center
10:21PM 34.0311 -115.1775 281° West 380 437 32,000  Level Los Angeles Center
10:22PM 34.0464 -115.3031 278° West 380 437 32,000  Level Los Angeles Center
10:23PM 34.0383 -115.4542 266° West 379 436 32,000  Level Los Angeles Center
10:24PM 34.0333 -115.5789 267° West 376 433 32,000  Level Los Angeles Center
10:25PM 34.0281 -115.7039 267° West 375 432 32,000  Level Los Angeles Center
10:26PM 34.0214 -115.8278 266° West 374 430 32,000  Level Los Angeles Center
10:27PM 34.0147 -115.9503 266° West 370 426 32,000  Level Los Angeles Center
10:28PM 34.0103 -116.0742 268° West 371 427 32,000  Level Los Angeles Center
10:29PM 34.0039 -116.1986 266° West 372 428 32,000 -240 Level Los Angeles Center
10:30PM 33.9969 -116.3211 266° West 371 427 31,600 -1,080 Descending Los Angeles Center
10:31PM 33.9911 -116.4461 267° West 373 429 29,900 -2,100 Descending Los Angeles Center
10:32PM 33.9844 -116.5686 266° West 371 427 27,400 -2,760 Descending Los Angeles Center
10:33PM 33.9767 -116.7078 266° West 355 409 24,400 -2,760 Descending Los Angeles Center
10:34PM 33.9708 -116.8203 266° West 343 395 21,900 -2,460 Descending Los Angeles Center
10:35PM 33.9650 -116.9308 266° West 336 387 19,400 -2,340 Descending Los Angeles Center
10:36PM 33.9586 -117.0408 266° West 332 382 17,200 -1,320 Descending Los Angeles Center
10:37PM 33.9508 -117.1544 265° West 341 392 16,800 -660 Descending Los Angeles Center
10:38PM 33.9531 -117.2936 271° West 377 434 15,900 -1,380 Descending Los Angeles Center
10:39PM 33.9706 -117.4256 279° West 398 458 14,000 -2,220 Descending Los Angeles Center
10:40PM 33.9881 -117.5517 280° West 386 444 11,500 -2,040 Descending Los Angeles Center
10:41PM 34.0000 -117.6833 276° West 347 399 9,900 -1,260 Descending Southern California TRACON
10:42PM 34.0000 -117.7667 270° West 275 316 9,000 -960 Descending Southern California TRACON
10:43PM 33.9833 -117.8667 259° West 270 311 8,000 -1,020 Descending Southern California TRACON
10:44PM 33.9833 -117.9500 270° West 272 313 7,000 -1,080 Descending Southern California TRACON
10:45PM 33.9667 -118.0333 256° West 269 310 5,900 -1,320 Descending Southern California TRACON
10:46PM 33.9667 -118.1333 270° West 260 299 4,300 -1,080 Descending Southern California TRACON
10:47PM 33.9578 -118.2044 261° West 261 300 3,700 -660 Descending Los Angeles Center